sensor_id;sensor_type;location;lat;lon;timestamp;temperature;humidity
9167;DHT22;4618;48.818;9.088;2023-03-16T00:02:03;-1.00;99.90
9167;DHT22;4618;48.818;9.088;2023-03-16T00:04:29;-1.10;99.90
9167;DHT22;4618;48.818;9.088;2023-03-16T00:06:55;-1.20;99.90
9167;DHT22;4618;48.818;9.088;2023-03-16T00:09:21;-1.30;99.90
9167;DHT22;4618;48.818;9.088;2023-03-16T00:11:47;-1.40;99.90
9167;DHT22;4618;48.818;9.088;2023-03-16T00:14:12;-1.50;99.90
9167;DHT22;4618;48.818;9.088;2023-03-16T00:16:38;-1.50;99.90
9167;DHT22;4618;48.818;9.088;2023-03-16T00:19:03;-1.50;99.90
9167;DHT22;4618;48.818;9.088;2023-03-16T00:21:30;-1.60;99.90
9167;DHT22;4618;48.818;9.088;2023-03-16T00:23:57;-1.60;96.90
9167;DHT22;4618;48.818;9.088;2023-03-16T00:26:23;-1.60;91.50
9167;DHT22;4618;48.818;9.088;2023-03-16T00:28:48;-1.50;90.80
9167;DHT22;4618;48.818;9.088;2023-03-16T00:31:14;-1.40;80.00
9167;DHT22;4618;48.818;9.088;2023-03-16T00:33:40;-1.40;72.00
9167;DHT22;4618;48.818;9.088;2023-03-16T00:36:07;-1.50;70.10
9167;DHT22;4618;48.818;9.088;2023-03-16T00:38:35;-1.50;74.90
9167;DHT22;4618;48.818;9.088;2023-03-16T00:41:03;-1.60;54.00
9167;DHT22;4618;48.818;9.088;2023-03-16T00:43:31;-1.70;47.60
9167;DHT22;4618;48.818;9.088;2023-03-16T00:45:58;-1.70;50.60
9167;DHT22;4618;48.818;9.088;2023-03-16T00:48:25;-1.70;39.80
9167;DHT22;4618;48.818;9.088;2023-03-16T00:50:51;-1.70;28.00
9167;DHT22;4618;48.818;9.088;2023-03-16T00:53:18;-1.70;20.50
9167;DHT22;4618;48.818;9.088;2023-03-16T00:55:44;-1.70;9.80
9167;DHT22;4618;48.818;9.088;2023-03-16T00:58:09;-1.70;6.10
9167;DHT22;4618;48.818;9.088;2023-03-16T01:00:39;-1.40;2.20
9167;DHT22;4618;48.818;9.088;2023-03-16T01:03:05;-1.40;7.20
9167;DHT22;4618;48.818;9.088;2023-03-16T01:05:30;-1.50;17.60
9167;DHT22;4618;48.818;9.088;2023-03-16T01:07:57;-1.60;40.50
9167;DHT22;4618;48.818;9.088;2023-03-16T01:10:24;-1.60;44.80
9167;DHT22;4618;48.818;9.088;2023-03-16T01:12:49;-1.60;29.10
9167;DHT22;4618;48.818;9.088;2023-03-16T01:15:20;-1.70;29.50
9167;DHT22;4618;48.818;9.088;2023-03-16T01:17:46;-1.60;17.50
9167;DHT22;4618;48.818;9.088;2023-03-16T01:20:12;-1.80;15.30
9167;DHT22;4618;48.818;9.088;2023-03-16T01:22:39;-1.70;24.10
9167;DHT22;4618;48.818;9.088;2023-03-16T01:25:05;-1.70;25.10
9167;DHT22;4618;48.818;9.088;2023-03-16T01:27:31;-1.70;29.50
9167;DHT22;4618;48.818;9.088;2023-03-16T01:29:57;-1.60;30.30
9167;DHT22;4618;48.818;9.088;2023-03-16T01:32:22;-1.50;41.30
9167;DHT22;4618;48.818;9.088;2023-03-16T08:38:31;5.30;99.90
9167;DHT22;4618;48.818;9.088;2023-03-16T08:40:58;6.00;1.00
9167;DHT22;4618;48.818;9.088;2023-03-16T08:43:24;6.60;1.00
9167;DHT22;4618;48.818;9.088;2023-03-16T08:45:51;7.00;99.90
9167;DHT22;4618;48.818;9.088;2023-03-16T08:48:17;7.20;99.90
9167;DHT22;4618;48.818;9.088;2023-03-16T08:50:43;7.50;29.40
9167;DHT22;4618;48.818;9.088;2023-03-16T08:53:09;8.20;1.00
9167;DHT22;4618;48.818;9.088;2023-03-16T08:55:36;8.50;99.90
9167;DHT22;4618;48.818;9.088;2023-03-16T08:58:02;8.60;99.90
9167;DHT22;4618;48.818;9.088;2023-03-16T09:00:28;9.20;1.00
9167;DHT22;4618;48.818;9.088;2023-03-16T09:02:54;9.20;99.90
9167;DHT22;4618;48.818;9.088;2023-03-16T09:05:20;9.60;99.90
9167;DHT22;4618;48.818;9.088;2023-03-16T09:07:47;9.90;1.00
9167;DHT22;4618;48.818;9.088;2023-03-16T09:10:13;10.50;1.00
9167;DHT22;4618;48.818;9.088;2023-03-16T09:12:41;10.70;1.00
9167;DHT22;4618;48.818;9.088;2023-03-16T09:15:08;11.00;1.00
9167;DHT22;4618;48.818;9.088;2023-03-16T09:17:35;11.40;1.00
9167;DHT22;4618;48.818;9.088;2023-03-16T09:20:01;11.80;99.90
9167;DHT22;4618;48.818;9.088;2023-03-16T09:22:27;12.10;99.90
9167;DHT22;4618;48.818;9.088;2023-03-16T09:24:53;12.20;1.00
9167;DHT22;4618;48.818;9.088;2023-03-16T09:27:19;10.80;1.00
9167;DHT22;4618;48.818;9.088;2023-03-16T09:29:45;11.60;1.00
9167;DHT22;4618;48.818;9.088;2023-03-16T09:32:11;12.00;1.00
9167;DHT22;4618;48.818;9.088;2023-03-16T09:34:38;12.10;1.00
9167;DHT22;4618;48.818;9.088;2023-03-16T09:37:04;12.50;99.90
9167;DHT22;4618;48.818;9.088;2023-03-16T09:39:29;12.70;99.90
9167;DHT22;4618;48.818;9.088;2023-03-16T09:42:24;13.10;99.90
9167;DHT22;4618;48.818;9.088;2023-03-16T09:45:03;13.50;99.90
9167;DHT22;4618;48.818;9.088;2023-03-16T09:47:32;13.30;99.90
9167;DHT22;4618;48.818;9.088;2023-03-16T09:50:04;13.20;99.90
9167;DHT22;4618;48.818;9.088;2023-03-16T09:55:37;12.50;1.00
9167;DHT22;4618;48.818;9.088;2023-03-16T09:58:09;12.90;99.90
9167;DHT22;4618;48.818;9.088;2023-03-16T10:00:44;13.20;99.90
9167;DHT22;4618;48.818;9.088;2023-03-16T10:03:35;13.10;99.90
9167;DHT22;4618;48.818;9.088;2023-03-16T10:06:08;12.90;99.90
9167;DHT22;4618;48.818;9.088;2023-03-16T10:09:00;12.80;99.90
9167;DHT22;4618;48.818;9.088;2023-03-16T10:11:36;12.60;99.90
9167;DHT22;4618;48.818;9.088;2023-03-16T10:14:18;12.40;1.00
9167;DHT22;4618;48.818;9.088;2023-03-16T10:16:49;13.00;99.90
9167;DHT22;4618;48.818;9.088;2023-03-16T10:19:20;13.00;99.90
9167;DHT22;4618;48.818;9.088;2023-03-16T10:21:49;12.30;99.90
9167;DHT22;4618;48.818;9.088;2023-03-16T10:26:56;12.30;99.90
9167;DHT22;4618;48.818;9.088;2023-03-16T10:29:31;12.40;99.90
9167;DHT22;4618;48.818;9.088;2023-03-16T10:32:07;12.60;99.90
9167;DHT22;4618;48.818;9.088;2023-03-16T10:34:36;12.90;99.90
9167;DHT22;4618;48.818;9.088;2023-03-16T10:42:00;14.10;1.00
9167;DHT22;4618;48.818;9.088;2023-03-16T10:44:27;14.70;99.90
9167;DHT22;4618;48.818;9.088;2023-03-16T10:47:05;15.00;99.90
9167;DHT22;4618;48.818;9.088;2023-03-16T10:49:41;14.40;99.90
9167;DHT22;4618;48.818;9.088;2023-03-16T10:52:34;14.10;99.90
9167;DHT22;4618;48.818;9.088;2023-03-16T11:15:19;17.60;1.00
9167;DHT22;4618;48.818;9.088;2023-03-16T12:09:58;20.60;1.00
9167;DHT22;4618;48.818;9.088;2023-03-16T12:12:39;20.00;1.00
9167;DHT22;4618;48.818;9.088;2023-03-16T12:18:17;20.90;1.00
9167;DHT22;4618;48.818;9.088;2023-03-16T12:21:12;21.90;1.00
9167;DHT22;4618;48.818;9.088;2023-03-16T12:23:50;22.60;1.00
9167;DHT22;4618;48.818;9.088;2023-03-16T12:26:22;23.10;1.00
9167;DHT22;4618;48.818;9.088;2023-03-16T12:28:50;22.70;1.00
9167;DHT22;4618;48.818;9.088;2023-03-16T12:31:23;22.40;1.00
9167;DHT22;4618;48.818;9.088;2023-03-16T12:39:06;20.10;1.00
9167;DHT22;4618;48.818;9.088;2023-03-16T12:42:05;21.10;1.00
9167;DHT22;4618;48.818;9.088;2023-03-16T12:49:49;19.70;1.00
9167;DHT22;4618;48.818;9.088;2023-03-16T12:52:17;19.70;1.00
9167;DHT22;4618;48.818;9.088;2023-03-16T12:55:05;19.50;1.00
9167;DHT22;4618;48.818;9.088;2023-03-16T12:57:31;19.40;1.00
9167;DHT22;4618;48.818;9.088;2023-03-16T12:59:58;18.70;1.00
9167;DHT22;4618;48.818;9.088;2023-03-16T13:02:29;18.90;1.00
9167;DHT22;4618;48.818;9.088;2023-03-16T13:05:00;18.70;1.00
9167;DHT22;4618;48.818;9.088;2023-03-16T13:07:28;18.70;1.00
9167;DHT22;4618;48.818;9.088;2023-03-16T13:09:59;18.80;1.00
9167;DHT22;4618;48.818;9.088;2023-03-16T13:12:29;18.50;1.00
9167;DHT22;4618;48.818;9.088;2023-03-16T13:14:57;18.40;1.00
9167;DHT22;4618;48.818;9.088;2023-03-16T13:17:26;17.20;1.00
9167;DHT22;4618;48.818;9.088;2023-03-16T13:20:06;18.70;1.00
9167;DHT22;4618;48.818;9.088;2023-03-16T13:23:45;20.00;1.00
9167;DHT22;4618;48.818;9.088;2023-03-16T13:25:44;20.00;1.00
9167;DHT22;4618;48.818;9.088;2023-03-16T13:28:27;18.30;1.00
9167;DHT22;4618;48.818;9.088;2023-03-16T13:30:53;17.40;1.00
9167;DHT22;4618;48.818;9.088;2023-03-16T13:33:23;17.10;1.00
9167;DHT22;4618;48.818;9.088;2023-03-16T13:35:51;16.80;1.00
9167;DHT22;4618;48.818;9.088;2023-03-16T13:38:20;17.20;1.00
9167;DHT22;4618;48.818;9.088;2023-03-16T13:40:52;18.00;1.00
9167;DHT22;4618;48.818;9.088;2023-03-16T13:43:22;18.20;1.00
9167;DHT22;4618;48.818;9.088;2023-03-16T13:45:48;18.10;1.00
9167;DHT22;4618;48.818;9.088;2023-03-16T13:48:14;18.60;1.00
9167;DHT22;4618;48.818;9.088;2023-03-16T13:50:41;19.00;1.00
9167;DHT22;4618;48.818;9.088;2023-03-16T13:53:16;19.40;1.00
9167;DHT22;4618;48.818;9.088;2023-03-16T13:55:44;20.20;1.00
9167;DHT22;4618;48.818;9.088;2023-03-16T13:58:21;20.80;1.00
9167;DHT22;4618;48.818;9.088;2023-03-16T14:00:47;20.80;1.00
9167;DHT22;4618;48.818;9.088;2023-03-16T14:03:16;21.60;1.00
9167;DHT22;4618;48.818;9.088;2023-03-16T14:05:42;21.90;1.00
9167;DHT22;4618;48.818;9.088;2023-03-16T14:08:22;21.90;1.00
9167;DHT22;4618;48.818;9.088;2023-03-16T14:10:49;22.20;1.00
9167;DHT22;4618;48.818;9.088;2023-03-16T14:16:10;22.20;1.00
9167;DHT22;4618;48.818;9.088;2023-03-16T14:18:41;21.20;1.00
9167;DHT22;4618;48.818;9.088;2023-03-16T14:21:19;20.20;1.00
9167;DHT22;4618;48.818;9.088;2023-03-16T14:23:50;20.70;1.00
9167;DHT22;4618;48.818;9.088;2023-03-16T14:26:18;20.50;1.00
9167;DHT22;4618;48.818;9.088;2023-03-16T14:29:00;19.60;1.00
9167;DHT22;4618;48.818;9.088;2023-03-16T14:31:32;19.60;1.00
9167;DHT22;4618;48.818;9.088;2023-03-16T14:34:00;18.60;1.00
9167;DHT22;4618;48.818;9.088;2023-03-16T14:36:34;18.40;1.00
9167;DHT22;4618;48.818;9.088;2023-03-16T14:39:12;18.60;1.00
9167;DHT22;4618;48.818;9.088;2023-03-16T14:41:38;18.70;1.00
9167;DHT22;4618;48.818;9.088;2023-03-16T14:44:04;18.60;1.00
9167;DHT22;4618;48.818;9.088;2023-03-16T14:46:32;18.70;1.00
9167;DHT22;4618;48.818;9.088;2023-03-16T14:49:28;18.00;1.00
9167;DHT22;4618;48.818;9.088;2023-03-16T14:51:58;17.70;1.00
9167;DHT22;4618;48.818;9.088;2023-03-16T14:54:25;18.10;1.00
9167;DHT22;4618;48.818;9.088;2023-03-16T14:56:54;18.10;1.00
9167;DHT22;4618;48.818;9.088;2023-03-16T14:59:23;17.90;1.00
9167;DHT22;4618;48.818;9.088;2023-03-16T15:01:49;17.60;1.00
9167;DHT22;4618;48.818;9.088;2023-03-16T15:04:24;17.10;1.00
9167;DHT22;4618;48.818;9.088;2023-03-16T15:06:50;16.90;1.00
9167;DHT22;4618;48.818;9.088;2023-03-16T15:09:39;17.00;1.00
9167;DHT22;4618;48.818;9.088;2023-03-16T15:12:15;16.70;1.00
9167;DHT22;4618;48.818;9.088;2023-03-16T15:14:42;16.80;1.00
9167;DHT22;4618;48.818;9.088;2023-03-16T15:17:27;16.50;1.00
9167;DHT22;4618;48.818;9.088;2023-03-16T15:19:52;16.50;1.00
9167;DHT22;4618;48.818;9.088;2023-03-16T15:22:27;16.60;1.00
9167;DHT22;4618;48.818;9.088;2023-03-16T15:24:54;16.80;1.00
9167;DHT22;4618;48.818;9.088;2023-03-16T15:27:22;16.80;1.00
9167;DHT22;4618;48.818;9.088;2023-03-16T15:29:49;16.40;1.00
9167;DHT22;4618;48.818;9.088;2023-03-16T15:32:14;16.50;1.00
9167;DHT22;4618;48.818;9.088;2023-03-16T15:34:41;16.30;1.00
9167;DHT22;4618;48.818;9.088;2023-03-16T15:37:15;16.00;1.00
9167;DHT22;4618;48.818;9.088;2023-03-16T15:39:42;15.70;1.00
9167;DHT22;4618;48.818;9.088;2023-03-16T15:42:16;15.20;1.00
9167;DHT22;4618;48.818;9.088;2023-03-16T15:44:43;14.70;1.00
9167;DHT22;4618;48.818;9.088;2023-03-16T15:47:09;14.60;1.00
9167;DHT22;4618;48.818;9.088;2023-03-16T15:49:35;14.30;1.00
9167;DHT22;4618;48.818;9.088;2023-03-16T15:52:01;14.00;1.00
9167;DHT22;4618;48.818;9.088;2023-03-16T15:54:27;13.90;1.00
9167;DHT22;4618;48.818;9.088;2023-03-16T15:56:53;13.70;1.00
9167;DHT22;4618;48.818;9.088;2023-03-16T15:59:22;13.60;1.00
9167;DHT22;4618;48.818;9.088;2023-03-16T16:01:49;13.30;1.00
9167;DHT22;4618;48.818;9.088;2023-03-16T16:04:18;13.10;1.00
9167;DHT22;4618;48.818;9.088;2023-03-16T16:06:45;13.00;1.00
9167;DHT22;4618;48.818;9.088;2023-03-16T16:09:11;13.00;1.00
9167;DHT22;4618;48.818;9.088;2023-03-16T16:11:37;12.90;1.00
9167;DHT22;4618;48.818;9.088;2023-03-16T16:14:04;12.90;1.00
9167;DHT22;4618;48.818;9.088;2023-03-16T16:16:30;12.70;1.00
9167;DHT22;4618;48.818;9.088;2023-03-16T16:18:56;12.70;1.00
9167;DHT22;4618;48.818;9.088;2023-03-16T16:21:24;12.60;1.00
9167;DHT22;4618;48.818;9.088;2023-03-16T16:23:52;12.50;1.00
9167;DHT22;4618;48.818;9.088;2023-03-16T16:26:30;12.40;1.00
9167;DHT22;4618;48.818;9.088;2023-03-16T16:28:56;12.50;1.00
9167;DHT22;4618;48.818;9.088;2023-03-16T16:31:27;12.40;1.00
9167;DHT22;4618;48.818;9.088;2023-03-16T16:33:54;12.30;1.00
9167;DHT22;4618;48.818;9.088;2023-03-16T16:36:20;12.20;1.00
9167;DHT22;4618;48.818;9.088;2023-03-16T16:38:47;12.10;1.00
9167;DHT22;4618;48.818;9.088;2023-03-16T16:41:25;12.00;1.00
9167;DHT22;4618;48.818;9.088;2023-03-16T16:43:52;11.90;1.00
9167;DHT22;4618;48.818;9.088;2023-03-16T16:46:20;11.80;1.00
9167;DHT22;4618;48.818;9.088;2023-03-16T16:48:50;11.60;1.00
9167;DHT22;4618;48.818;9.088;2023-03-16T16:51:24;11.40;1.00
9167;DHT22;4618;48.818;9.088;2023-03-16T16:53:52;11.30;1.00
9167;DHT22;4618;48.818;9.088;2023-03-16T16:56:25;11.10;1.00
9167;DHT22;4618;48.818;9.088;2023-03-16T16:58:53;11.00;1.00
9167;DHT22;4618;48.818;9.088;2023-03-16T17:01:31;10.90;1.00
9167;DHT22;4618;48.818;9.088;2023-03-16T17:03:59;10.80;1.00
9167;DHT22;4618;48.818;9.088;2023-03-16T17:06:25;10.70;1.00
9167;DHT22;4618;48.818;9.088;2023-03-16T17:08:52;10.60;1.00
9167;DHT22;4618;48.818;9.088;2023-03-16T17:11:27;10.80;3.30
9167;DHT22;4618;48.818;9.088;2023-03-16T17:13:57;11.00;2.40
9167;DHT22;4618;48.818;9.088;2023-03-16T17:16:24;11.10;8.80
9167;DHT22;4618;48.818;9.088;2023-03-16T17:18:53;11.00;13.00
9167;DHT22;4618;48.818;9.088;2023-03-16T17:21:22;10.80;26.30
9167;DHT22;4618;48.818;9.088;2023-03-16T17:23:48;10.50;63.60
9167;DHT22;4618;48.818;9.088;2023-03-16T17:26:32;10.30;90.80
9167;DHT22;4618;48.818;9.088;2023-03-16T17:29:04;10.00;1.00
9167;DHT22;4618;48.818;9.088;2023-03-16T17:31:33;9.90;1.00
9167;DHT22;4618;48.818;9.088;2023-03-16T17:34:02;9.70;1.00
9167;DHT22;4618;48.818;9.088;2023-03-16T17:36:28;9.50;1.00
9167;DHT22;4618;48.818;9.088;2023-03-16T17:38:55;9.40;1.00
9167;DHT22;4618;48.818;9.088;2023-03-16T17:41:22;9.40;1.00
9167;DHT22;4618;48.818;9.088;2023-03-16T17:43:50;9.30;1.00
9167;DHT22;4618;48.818;9.088;2023-03-16T17:46:17;9.30;12.50
9167;DHT22;4618;48.818;9.088;2023-03-16T17:48:45;9.20;28.10
9167;DHT22;4618;48.818;9.088;2023-03-16T17:51:15;9.10;55.70
9167;DHT22;4618;48.818;9.088;2023-03-16T17:53:42;9.00;99.90
9167;DHT22;4618;48.818;9.088;2023-03-16T17:56:24;9.00;99.90
9167;DHT22;4618;48.818;9.088;2023-03-16T17:58:55;9.00;99.90
9167;DHT22;4618;48.818;9.088;2023-03-16T18:01:28;8.90;99.90
9167;DHT22;4618;48.818;9.088;2023-03-16T18:03:55;8.80;99.90
9167;DHT22;4618;48.818;9.088;2023-03-16T18:06:23;8.80;99.90
9167;DHT22;4618;48.818;9.088;2023-03-16T18:08:50;8.70;99.90
9167;DHT22;4618;48.818;9.088;2023-03-16T18:11:37;8.70;99.90
9167;DHT22;4618;48.818;9.088;2023-03-16T18:14:08;8.70;99.90
9167;DHT22;4618;48.818;9.088;2023-03-16T18:16:38;8.60;99.90
9167;DHT22;4618;48.818;9.088;2023-03-16T18:19:20;8.50;99.90
9167;DHT22;4618;48.818;9.088;2023-03-16T18:21:48;8.40;99.90
9167;DHT22;4618;48.818;9.088;2023-03-16T18:24:14;8.40;99.90
9167;DHT22;4618;48.818;9.088;2023-03-16T18:26:40;8.30;99.90
9167;DHT22;4618;48.818;9.088;2023-03-16T18:29:06;8.20;99.90
9167;DHT22;4618;48.818;9.088;2023-03-16T18:31:32;8.20;99.90
9167;DHT22;4618;48.818;9.088;2023-03-16T18:33:58;8.10;99.90
9167;DHT22;4618;48.818;9.088;2023-03-16T18:36:35;8.10;99.90
9167;DHT22;4618;48.818;9.088;2023-03-16T18:39:04;8.00;99.90
9167;DHT22;4618;48.818;9.088;2023-03-16T18:41:33;8.00;99.90
9167;DHT22;4618;48.818;9.088;2023-03-16T18:44:10;8.00;1.00
9167;DHT22;4618;48.818;9.088;2023-03-16T18:46:38;8.00;99.90
9167;DHT22;4618;48.818;9.088;2023-03-16T18:49:22;8.00;99.90
9167;DHT22;4618;48.818;9.088;2023-03-16T18:51:51;8.00;99.90
9167;DHT22;4618;48.818;9.088;2023-03-16T18:56:48;7.90;99.90
9167;DHT22;4618;48.818;9.088;2023-03-16T18:59:14;7.90;99.90
9167;DHT22;4618;48.818;9.088;2023-03-16T19:01:41;7.80;99.90
9167;DHT22;4618;48.818;9.088;2023-03-16T19:04:25;7.80;99.90
9167;DHT22;4618;48.818;9.088;2023-03-16T19:06:52;7.80;99.90
9167;DHT22;4618;48.818;9.088;2023-03-16T19:09:24;7.80;99.90
9167;DHT22;4618;48.818;9.088;2023-03-16T19:11:50;7.70;99.90
9167;DHT22;4618;48.818;9.088;2023-03-16T19:16:42;7.70;99.90
9167;DHT22;4618;48.818;9.088;2023-03-16T19:19:08;7.70;99.90
9167;DHT22;4618;48.818;9.088;2023-03-16T19:21:35;7.60;99.90
9167;DHT22;4618;48.818;9.088;2023-03-16T19:24:01;7.60;99.90
9167;DHT22;4618;48.818;9.088;2023-03-16T19:26:33;7.60;99.90
9167;DHT22;4618;48.818;9.088;2023-03-16T19:29:00;7.70;99.90
9167;DHT22;4618;48.818;9.088;2023-03-16T19:31:27;7.60;99.90
9167;DHT22;4618;48.818;9.088;2023-03-16T19:33:54;7.50;99.90
9167;DHT22;4618;48.818;9.088;2023-03-16T19:36:27;7.50;99.90
9167;DHT22;4618;48.818;9.088;2023-03-16T19:38:54;7.50;1.00
9167;DHT22;4618;48.818;9.088;2023-03-16T19:43:55;7.30;1.00
9167;DHT22;4618;48.818;9.088;2023-03-16T19:46:26;7.30;1.00
9167;DHT22;4618;48.818;9.088;2023-03-16T19:48:52;7.20;1.00
9167;DHT22;4618;48.818;9.088;2023-03-16T19:51:17;7.10;1.00
9167;DHT22;4618;48.818;9.088;2023-03-16T19:53:44;7.10;1.00
9167;DHT22;4618;48.818;9.088;2023-03-16T19:56:20;7.00;1.00
9167;DHT22;4618;48.818;9.088;2023-03-16T19:58:48;7.00;1.00
9167;DHT22;4618;48.818;9.088;2023-03-16T20:01:15;7.00;1.00
9167;DHT22;4618;48.818;9.088;2023-03-16T20:03:42;7.00;1.00
9167;DHT22;4618;48.818;9.088;2023-03-16T20:06:11;6.90;1.00
9167;DHT22;4618;48.818;9.088;2023-03-16T20:08:37;6.80;1.00
9167;DHT22;4618;48.818;9.088;2023-03-16T20:11:05;6.80;1.00
9167;DHT22;4618;48.818;9.088;2023-03-16T20:13:32;6.70;1.00
9167;DHT22;4618;48.818;9.088;2023-03-16T20:15:58;6.70;1.00
9167;DHT22;4618;48.818;9.088;2023-03-16T20:18:24;6.70;1.00
9167;DHT22;4618;48.818;9.088;2023-03-16T20:20:51;6.70;1.00
9167;DHT22;4618;48.818;9.088;2023-03-16T20:23:22;6.60;1.00
9167;DHT22;4618;48.818;9.088;2023-03-16T20:25:49;6.70;1.00
9167;DHT22;4618;48.818;9.088;2023-03-16T20:28:23;6.60;1.00
9167;DHT22;4618;48.818;9.088;2023-03-16T20:30:49;6.50;71.50
9167;DHT22;4618;48.818;9.088;2023-03-16T20:33:23;6.50;69.70
9167;DHT22;4618;48.818;9.088;2023-03-16T20:35:50;6.50;3.10
9167;DHT22;4618;48.818;9.088;2023-03-16T20:38:18;6.60;1.00
9167;DHT22;4618;48.818;9.088;2023-03-16T20:40:46;6.50;1.00
9167;DHT22;4618;48.818;9.088;2023-03-16T20:43:25;6.50;51.60
9167;DHT22;4618;48.818;9.088;2023-03-16T20:45:54;6.50;5.90
9167;DHT22;4618;48.818;9.088;2023-03-16T20:48:19;6.50;2.70
9167;DHT22;4618;48.818;9.088;2023-03-16T20:50:46;6.60;1.00
9167;DHT22;4618;48.818;9.088;2023-03-16T20:53:12;6.60;1.00
9167;DHT22;4618;48.818;9.088;2023-03-16T20:55:37;6.60;1.00
9167;DHT22;4618;48.818;9.088;2023-03-16T20:58:15;6.70;1.00
9167;DHT22;4618;48.818;9.088;2023-03-16T21:00:41;6.60;1.00
9167;DHT22;4618;48.818;9.088;2023-03-16T21:03:23;6.50;1.00
9167;DHT22;4618;48.818;9.088;2023-03-16T21:05:50;6.40;65.50
9167;DHT22;4618;48.818;9.088;2023-03-16T21:08:17;6.30;99.90
9167;DHT22;4618;48.818;9.088;2023-03-16T21:10:45;6.30;99.90
9167;DHT22;4618;48.818;9.088;2023-03-16T21:13:29;6.20;99.90
9167;DHT22;4618;48.818;9.088;2023-03-16T21:15:57;6.30;99.90
9167;DHT22;4618;48.818;9.088;2023-03-16T21:18:23;6.30;99.90
9167;DHT22;4618;48.818;9.088;2023-03-16T21:20:49;6.20;99.90
9167;DHT22;4618;48.818;9.088;2023-03-16T21:23:21;6.30;99.90
9167;DHT22;4618;48.818;9.088;2023-03-16T21:25:55;6.40;99.90
9167;DHT22;4618;48.818;9.088;2023-03-16T21:28:26;6.30;99.90
9167;DHT22;4618;48.818;9.088;2023-03-16T21:30:54;6.20;99.90
9167;DHT22;4618;48.818;9.088;2023-03-16T21:33:30;6.10;99.90
9167;DHT22;4618;48.818;9.088;2023-03-16T21:35:58;6.10;99.90
9167;DHT22;4618;48.818;9.088;2023-03-16T21:38:25;6.20;99.90
9167;DHT22;4618;48.818;9.088;2023-03-16T21:40:52;6.10;99.90
9167;DHT22;4618;48.818;9.088;2023-03-16T21:43:18;6.10;99.90
9167;DHT22;4618;48.818;9.088;2023-03-16T21:45:45;6.10;99.90
9167;DHT22;4618;48.818;9.088;2023-03-16T21:48:35;6.20;99.90
9167;DHT22;4618;48.818;9.088;2023-03-16T21:51:01;6.20;99.90
9167;DHT22;4618;48.818;9.088;2023-03-16T21:53:29;6.30;99.90
9167;DHT22;4618;48.818;9.088;2023-03-16T21:55:56;6.30;99.90
9167;DHT22;4618;48.818;9.088;2023-03-16T21:58:23;6.30;99.90
9167;DHT22;4618;48.818;9.088;2023-03-16T22:00:50;6.30;99.90
9167;DHT22;4618;48.818;9.088;2023-03-16T22:03:28;6.30;99.90
9167;DHT22;4618;48.818;9.088;2023-03-16T22:05:55;6.30;99.90
9167;DHT22;4618;48.818;9.088;2023-03-16T22:08:26;6.20;99.90
9167;DHT22;4618;48.818;9.088;2023-03-16T22:10:53;6.20;99.90
9167;DHT22;4618;48.818;9.088;2023-03-16T22:13:19;6.20;99.90
9167;DHT22;4618;48.818;9.088;2023-03-16T22:15:46;6.20;99.90
9167;DHT22;4618;48.818;9.088;2023-03-16T22:18:24;6.20;99.90
9167;DHT22;4618;48.818;9.088;2023-03-16T22:20:52;6.10;99.90
9167;DHT22;4618;48.818;9.088;2023-03-16T22:23:32;6.00;99.90
9167;DHT22;4618;48.818;9.088;2023-03-16T22:26:00;5.90;99.90
9167;DHT22;4618;48.818;9.088;2023-03-16T22:28:26;5.80;99.90
9167;DHT22;4618;48.818;9.088;2023-03-16T22:30:53;5.80;99.90
9167;DHT22;4618;48.818;9.088;2023-03-16T22:33:26;5.70;99.90
9167;DHT22;4618;48.818;9.088;2023-03-16T22:35:53;5.80;99.90
9167;DHT22;4618;48.818;9.088;2023-03-16T22:38:19;5.70;99.90
9167;DHT22;4618;48.818;9.088;2023-03-16T22:40:45;5.60;1.00
9167;DHT22;4618;48.818;9.088;2023-03-16T22:43:14;5.60;1.00
9167;DHT22;4618;48.818;9.088;2023-03-16T22:45:40;5.60;1.00
9167;DHT22;4618;48.818;9.088;2023-03-16T22:48:26;5.50;1.00
9167;DHT22;4618;48.818;9.088;2023-03-16T22:50:53;5.50;1.00
9167;DHT22;4618;48.818;9.088;2023-03-16T22:53:36;5.40;1.00
9167;DHT22;4618;48.818;9.088;2023-03-16T22:56:03;5.40;1.00
9167;DHT22;4618;48.818;9.088;2023-03-16T22:58:40;5.40;1.00
9167;DHT22;4618;48.818;9.088;2023-03-16T23:01:24;5.30;1.00
9167;DHT22;4618;48.818;9.088;2023-03-16T23:03:52;5.40;1.00
9167;DHT22;4618;48.818;9.088;2023-03-16T23:06:23;5.40;99.90
9167;DHT22;4618;48.818;9.088;2023-03-16T23:08:49;5.40;99.90
9167;DHT22;4618;48.818;9.088;2023-03-16T23:11:20;5.40;99.90
9167;DHT22;4618;48.818;9.088;2023-03-16T23:13:46;5.40;99.90
9167;DHT22;4618;48.818;9.088;2023-03-16T23:16:21;5.30;99.90
9167;DHT22;4618;48.818;9.088;2023-03-16T23:18:48;5.20;99.90
9167;DHT22;4618;48.818;9.088;2023-03-16T23:21:15;5.20;1.00
9167;DHT22;4618;48.818;9.088;2023-03-16T23:23:42;5.10;1.00
9167;DHT22;4618;48.818;9.088;2023-03-16T23:26:21;5.10;1.00
9167;DHT22;4618;48.818;9.088;2023-03-16T23:28:49;5.10;1.00
9167;DHT22;4618;48.818;9.088;2023-03-16T23:31:16;5.20;99.90
9167;DHT22;4618;48.818;9.088;2023-03-16T23:36:18;5.20;99.90
9167;DHT22;4618;48.818;9.088;2023-03-16T23:38:44;5.10;99.90
9167;DHT22;4618;48.818;9.088;2023-03-16T23:41:12;5.10;99.90
9167;DHT22;4618;48.818;9.088;2023-03-16T23:43:39;5.00;1.00
9167;DHT22;4618;48.818;9.088;2023-03-16T23:46:08;4.90;1.00
9167;DHT22;4618;48.818;9.088;2023-03-16T23:48:37;4.80;1.00
9167;DHT22;4618;48.818;9.088;2023-03-16T23:51:03;4.60;1.00
9167;DHT22;4618;48.818;9.088;2023-03-16T23:53:29;4.50;17.50
9167;DHT22;4618;48.818;9.088;2023-03-16T23:55:55;4.40;99.90
9167;DHT22;4618;48.818;9.088;2023-03-16T23:58:21;4.30;99.90
